Time;durP1;ratioP1;P1;durP2;ratioP2;P2;SDS_P1;SDS_P2;PMS_P1;PMS_P2;Temp;Humidity;BMP_temperature;BMP_pressure;BME280_temperature;BME280_humidity;BME280_pressure;Samples;Min_cycle;Max_cycle;Signal;HPM_P1;HPM_P2
2022/06/30 00:01:33;;;;;;;4.43;3.75;;;;;;;;;;5144445;27;20035;-80
2022/06/30 00:03:59;;;;;;;4.43;3.72;;;;;;;;;;5162385;27;20126;-80
2022/06/30 00:06:25;;;;;;;3.65;3.35;;;;;;;;;;5137628;27;20032;-80
2022/06/30 00:08:50;;;;;;;5.13;3.50;;;;;;;;;;5103519;28;20062;-80
2022/06/30 00:11:16;;;;;;;4.43;3.67;;;;;;;;;;5119314;27;20038;-80
2022/06/30 00:13:42;;;;;;;4.68;4.05;;;;;;;;;;5162413;27;20091;-80
2022/06/30 00:16:09;;;;;;;4.80;3.50;;;;;;;;;;5144195;27;20030;-80
2022/06/30 00:18:36;;;;;;;3.97;3.58;;;;;;;;;;5144290;27;20031;-80
2022/06/30 00:21:03;;;;;;;4.00;3.60;;;;;;;;;;5144798;27;20030;-80
2022/06/30 00:23:28;;;;;;;4.93;3.55;;;;;;;;;;5160628;27;20035;-80
2022/06/30 00:25:54;;;;;;;6.45;3.42;;;;;;;;;;5161069;27;20036;-80
2022/06/30 00:28:20;;;;;;;9.18;4.10;;;;;;;;;;5143521;27;20082;-80
2022/06/30 00:30:47;;;;;;;4.50;3.58;;;;;;;;;;5143518;27;20042;-80
2022/06/30 00:33:13;;;;;;;5.63;3.60;;;;;;;;;;5143503;27;20125;-80
2022/06/30 00:35:40;;;;;;;6.03;3.58;;;;;;;;;;5143410;27;20467;-80
2022/06/30 00:38:06;;;;;;;4.47;3.58;;;;;;;;;;5143299;27;20531;-80
2022/06/30 00:40:36;;;;;;;3.60;3.13;;;;;;;;;;5142366;27;20066;-80
2022/06/30 00:43:03;;;;;;;6.00;3.97;;;;;;;;;;5123118;27;20031;-80
2022/06/30 00:45:29;;;;;;;5.13;3.92;;;;;;;;;;5139898;27;20508;-80
2022/06/30 00:47:54;;;;;;;4.18;3.60;;;;;;;;;;5122055;27;20039;-80
2022/06/30 00:50:20;;;;;;;3.97;3.42;;;;;;;;;;5122913;27;20053;-80
2022/06/30 00:52:49;;;;;;;13.35;3.40;;;;;;;;;;5122918;27;20118;-80
2022/06/30 00:55:17;;;;;;;5.43;3.30;;;;;;;;;;5140366;27;20031;-80
2022/06/30 00:57:44;;;;;;;6.97;4.35;;;;;;;;;;5139740;27;20110;-80
2022/06/30 01:00:10;;;;;;;8.48;4.20;;;;;;;;;;5122176;27;20023;-80
2022/06/30 01:02:37;;;;;;;6.80;4.35;;;;;;;;;;5139086;27;20091;-80
2022/06/30 01:05:03;;;;;;;5.43;3.95;;;;;;;;;;5122413;27;20046;-80
2022/06/30 01:07:29;;;;;;;4.68;3.80;;;;;;;;;;5122389;27;20043;-80
2022/06/30 01:12:44;;;;;;;8.48;4.07;;;;;;;;;;5159281;27;20037;-80
2022/06/30 01:15:16;;;;;;;5.50;4.07;;;;;;;;;;5160837;27;20039;-80
2022/06/30 01:17:43;;;;;;;5.88;3.97;;;;;;;;;;5142049;27;20038;-80
2022/06/30 01:20:10;;;;;;;6.93;3.78;;;;;;;;;;5159785;27;20026;-80
2022/06/30 01:22:35;;;;;;;10.23;4.28;;;;;;;;;;5142334;27;20062;-80
2022/06/30 01:25:02;;;;;;;5.75;4.00;;;;;;;;;;5150118;27;20038;-80
2022/06/30 01:27:27;;;;;;;6.15;3.85;;;;;;;;;;5152338;27;20026;-80
2022/06/30 01:29:54;;;;;;;7.60;4.13;;;;;;;;;;5152764;27;20037;-80
2022/06/30 01:32:20;;;;;;;4.72;3.88;;;;;;;;;;5168917;27;20046;-80
2022/06/30 01:34:46;;;;;;;6.30;4.10;;;;;;;;;;5152201;27;20018;-80
2022/06/30 01:37:11;;;;;;;4.82;4.05;;;;;;;;;;5151404;27;20551;-80
2022/06/30 01:39:39;;;;;;;5.90;4.00;;;;;;;;;;5172008;27;20023;-80
2022/06/30 01:42:05;;;;;;;5.07;3.95;;;;;;;;;;5152231;27;20102;-80
2022/06/30 01:44:32;;;;;;;7.95;4.00;;;;;;;;;;5168500;27;20038;-80
2022/06/30 01:46:57;;;;;;;10.32;4.43;;;;;;;;;;5151535;27;20059;-80
2022/06/30 01:49:23;;;;;;;7.05;4.15;;;;;;;;;;5151426;27;20096;-80
2022/06/30 01:51:49;;;;;;;7.60;4.00;;;;;;;;;;5152817;27;20041;-80
2022/06/30 01:54:16;;;;;;;5.72;3.25;;;;;;;;;;5133050;27;20091;-80
2022/06/30 01:56:43;;;;;;;7.25;3.50;;;;;;;;;;5130921;28;20027;-80
2022/06/30 01:59:09;;;;;;;6.93;4.38;;;;;;;;;;5123942;28;20034;-80
2022/06/30 02:01:35;;;;;;;5.28;3.70;;;;;;;;;;5120213;28;20035;-80
2022/06/30 02:06:47;;;;;;;5.03;3.60;;;;;;;;;;5138360;28;20117;-80
2022/06/30 02:09:13;;;;;;;10.57;3.97;;;;;;;;;;5138155;28;20039;-80
2022/06/30 02:11:39;;;;;;;5.82;4.38;;;;;;;;;;5140201;27;20035;-80
2022/06/30 02:14:06;;;;;;;9.85;4.22;;;;;;;;;;5121777;28;20039;-78
2022/06/30 02:16:33;;;;;;;11.27;3.92;;;;;;;;;;5122602;28;20080;-83
2022/06/30 02:18:58;;;;;;;4.63;3.85;;;;;;;;;;5121912;28;20031;-82
2022/06/30 02:21:26;;;;;;;7.28;3.90;;;;;;;;;;5138466;27;20039;-82
2022/06/30 02:23:53;;;;;;;4.75;3.95;;;;;;;;;;5140460;27;20031;-82
2022/06/30 02:26:19;;;;;;;5.60;3.53;;;;;;;;;;5141024;27;20034;-83
2022/06/30 02:28:45;;;;;;;7.80;4.05;;;;;;;;;;5140867;27;20031;-82
2022/06/30 02:31:12;;;;;;;10.05;4.03;;;;;;;;;;5141597;27;20034;-83
2022/06/30 02:33:41;;;;;;;5.82;3.80;;;;;;;;;;5141232;27;20129;-82
2022/06/30 02:36:07;;;;;;;6.03;3.65;;;;;;;;;;5127966;27;20071;-82
2022/06/30 02:38:34;;;;;;;5.47;3.95;;;;;;;;;;5100446;28;20036;-82
2022/06/30 02:41:00;;;;;;;5.95;4.40;;;;;;;;;;5103198;28;20061;-82
2022/06/30 02:43:25;;;;;;;10.18;4.22;;;;;;;;;;5108500;28;20036;-82
2022/06/30 02:45:54;;;;;;;9.82;4.15;;;;;;;;;;5108747;28;20028;-82
2022/06/30 02:48:20;;;;;;;5.25;3.58;;;;;;;;;;5108260;28;20035;-82
2022/06/30 02:50:47;;;;;;;12.02;3.80;;;;;;;;;;5123004;28;20040;-83
2022/06/30 02:53:12;;;;;;;4.22;3.70;;;;;;;;;;5123063;27;20019;-79
2022/06/30 02:55:38;;;;;;;13.82;4.22;;;;;;;;;;5143263;27;20070;-82
2022/06/30 02:58:03;;;;;;;6.68;4.53;;;;;;;;;;5140795;27;20046;-82
2022/06/30 03:00:34;;;;;;;5.72;4.40;;;;;;;;;;5139772;27;20034;-79
2022/06/30 03:03:00;;;;;;;4.88;4.03;;;;;;;;;;5157163;27;20077;-79
2022/06/30 03:05:25;;;;;;;5.20;3.78;;;;;;;;;;5139763;27;20093;-79
2022/06/30 03:07:51;;;;;;;10.15;3.60;;;;;;;;;;5155259;27;20038;-79
2022/06/30 03:10:16;;;;;;;7.28;3.83;;;;;;;;;;5136481;27;20490;-79
2022/06/30 03:12:42;;;;;;;5.47;3.95;;;;;;;;;;5119502;27;20480;-79
2022/06/30 03:15:08;;;;;;;6.20;4.05;;;;;;;;;;5121220;27;20498;-79
2022/06/30 03:17:33;;;;;;;8.75;4.35;;;;;;;;;;5122683;27;20035;-79
2022/06/30 03:19:59;;;;;;;9.05;4.47;;;;;;;;;;5140060;27;20034;-79
2022/06/30 03:22:24;;;;;;;6.28;4.47;;;;;;;;;;5139408;27;20106;-79
2022/06/30 03:24:50;;;;;;;9.02;4.05;;;;;;;;;;5141756;27;20027;-79
2022/06/30 03:27:18;;;;;;;5.15;4.30;;;;;;;;;;5122096;27;20050;-79
2022/06/30 03:29:44;;;;;;;8.18;4.05;;;;;;;;;;5122554;27;20035;-79
2022/06/30 03:32:10;;;;;;;8.70;4.50;;;;;;;;;;5140552;27;20188;-79
2022/06/30 03:34:36;;;;;;;13.40;5.07;;;;;;;;;;5140309;27;20035;-79
2022/06/30 03:37:03;;;;;;;5.90;4.28;;;;;;;;;;5130565;27;20048;-79
2022/06/30 03:39:28;;;;;;;13.45;4.13;;;;;;;;;;5119773;28;20032;-79
2022/06/30 03:41:56;;;;;;;8.23;4.13;;;;;;;;;;5102679;28;20069;-79
2022/06/30 03:44:21;;;;;;;6.05;4.45;;;;;;;;;;5102472;28;20032;-79
2022/06/30 03:46:47;;;;;;;8.13;4.60;;;;;;;;;;5119855;28;20058;-79
2022/06/30 03:49:12;;;;;;;9.70;4.40;;;;;;;;;;5119342;28;20081;-79
2022/06/30 03:51:42;;;;;;;9.63;4.85;;;;;;;;;;5102354;28;20480;-79
2022/06/30 03:54:07;;;;;;;6.70;3.90;;;;;;;;;;5119078;28;20044;-79
2022/06/30 03:56:33;;;;;;;6.15;4.40;;;;;;;;;;5119190;28;20124;-79
2022/06/30 03:58:59;;;;;;;5.55;4.38;;;;;;;;;;5101630;28;20485;-79
2022/06/30 04:01:24;;;;;;;7.55;4.40;;;;;;;;;;5119652;28;20043;-79
2022/06/30 04:03:51;;;;;;;10.85;4.28;;;;;;;;;;5102614;28;20036;-79
2022/06/30 04:06:16;;;;;;;5.18;3.90;;;;;;;;;;5128683;27;20039;-79
2022/06/30 04:08:42;;;;;;;7.47;4.32;;;;;;;;;;5119130;28;20099;-78
2022/06/30 04:11:09;;;;;;;8.25;4.60;;;;;;;;;;5118555;28;20035;-78
2022/06/30 04:13:35;;;;;;;5.30;4.20;;;;;;;;;;5117261;28;20027;-78
2022/06/30 04:16:01;;;;;;;8.15;4.32;;;;;;;;;;5100385;28;20405;-78
2022/06/30 04:18:26;;;;;;;8.73;4.65;;;;;;;;;;5117113;28;20039;-78
2022/06/30 04:20:53;;;;;;;7.72;4.60;;;;;;;;;;5099925;28;20043;-79
2022/06/30 04:23:19;;;;;;;12.80;4.75;;;;;;;;;;5099826;28;20532;-79
2022/06/30 04:25:45;;;;;;;4.95;3.83;;;;;;;;;;5116619;28;20032;-78
2022/06/30 04:28:11;;;;;;;7.35;4.10;;;;;;;;;;5099866;28;20038;-78
2022/06/30 04:33:22;;;;;;;6.60;4.32;;;;;;;;;;5117904;28;20035;-79
2022/06/30 04:35:47;;;;;;;7.93;4.50;;;;;;;;;;5132851;27;20039;-78
2022/06/30 04:38:13;;;;;;;8.35;4.97;;;;;;;;;;5137993;27;20057;-79
2022/06/30 04:43:24;;;;;;;9.25;4.68;;;;;;;;;;5136736;27;20030;-78
2022/06/30 04:45:50;;;;;;;8.02;4.78;;;;;;;;;;5137546;27;20050;-78
2022/06/30 04:48:16;;;;;;;8.48;4.93;;;;;;;;;;5137267;27;20499;-78
2022/06/30 04:50:43;;;;;;;10.18;5.97;;;;;;;;;;5120090;27;20035;-78
2022/06/30 04:53:08;;;;;;;10.98;5.32;;;;;;;;;;5120192;27;20042;-78
2022/06/30 04:55:34;;;;;;;16.50;5.10;;;;;;;;;;5120747;27;20034;-78
2022/06/30 04:58:00;;;;;;;9.40;5.32;;;;;;;;;;5120225;27;20046;-78
2022/06/30 05:00:25;;;;;;;7.90;5.20;;;;;;;;;;5120315;27;20131;-78
2022/06/30 05:02:52;;;;;;;6.82;4.70;;;;;;;;;;5136876;27;20038;-79
2022/06/30 05:05:18;;;;;;;5.78;4.90;;;;;;;;;;5119932;27;20035;-82
2022/06/30 05:07:44;;;;;;;8.77;5.30;;;;;;;;;;5137291;27;20091;-80
2022/06/30 05:10:10;;;;;;;8.05;5.15;;;;;;;;;;5119432;27;20019;-81
2022/06/30 05:12:36;;;;;;;10.13;5.55;;;;;;;;;;5119962;27;20131;-82
2022/06/30 05:15:01;;;;;;;8.20;4.97;;;;;;;;;;5119958;27;20027;-79
2022/06/30 05:17:26;;;;;;;9.13;5.63;;;;;;;;;;5137454;27;20035;-82
2022/06/30 05:19:52;;;;;;;9.40;5.25;;;;;;;;;;5120767;27;20027;-82
2022/06/30 05:22:18;;;;;;;7.50;5.40;;;;;;;;;;5138194;27;20373;-82
2022/06/30 05:27:38;;;;;;;6.93;5.40;;;;;;;;;;5139270;27;20042;-83
2022/06/30 05:30:06;;;;;;;8.82;6.03;;;;;;;;;;5120980;27;20027;-80
2022/06/30 05:32:31;;;;;;;10.63;5.60;;;;;;;;;;5120843;27;20035;-81
2022/06/30 05:34:57;;;;;;;5.78;4.75;;;;;;;;;;5120723;27;20035;-80
2022/06/30 05:37:23;;;;;;;7.00;4.82;;;;;;;;;;5119780;27;20478;-81
2022/06/30 05:39:49;;;;;;;9.38;5.30;;;;;;;;;;5120879;27;20050;-82
2022/06/30 05:42:14;;;;;;;7.63;5.13;;;;;;;;;;5138169;27;20035;-81
2022/06/30 05:44:39;;;;;;;8.20;5.35;;;;;;;;;;5120968;27;20039;-82
2022/06/30 05:47:05;;;;;;;8.88;4.57;;;;;;;;;;5120866;27;20149;-81
2022/06/30 05:49:30;;;;;;;6.82;4.75;;;;;;;;;;5137377;27;20054;-81
2022/06/30 05:51:56;;;;;;;9.25;5.28;;;;;;;;;;5119725;27;20411;-82
2022/06/30 05:54:22;;;;;;;9.13;5.32;;;;;;;;;;5119806;27;20031;-81
2022/06/30 05:56:47;;;;;;;9.70;5.50;;;;;;;;;;5137075;27;20035;-80
2022/06/30 05:59:13;;;;;;;8.88;5.57;;;;;;;;;;5121876;28;20035;-78
2022/06/30 06:01:40;;;;;;;9.68;5.95;;;;;;;;;;5136049;27;20035;-80
2022/06/30 06:04:10;;;;;;;10.38;5.35;;;;;;;;;;5137316;28;20036;-86
2022/06/30 06:06:35;;;;;;;9.15;6.00;;;;;;;;;;5136620;27;20035;-81
2022/06/30 06:09:01;;;;;;;10.38;5.82;;;;;;;;;;5133966;28;20499;-78
2022/06/30 06:11:26;;;;;;;7.57;5.22;;;;;;;;;;5134738;28;20062;-78
2022/06/30 06:13:51;;;;;;;14.60;7.53;;;;;;;;;;5128378;28;20034;-77
2022/06/30 06:16:18;;;;;;;8.98;6.25;;;;;;;;;;5112494;28;20035;-78
2022/06/30 06:18:43;;;;;;;9.65;6.03;;;;;;;;;;5112967;28;20035;-77
2022/06/30 06:21:08;;;;;;;8.35;5.80;;;;;;;;;;5095618;28;20035;-77
2022/06/30 06:23:34;;;;;;;18.05;6.30;;;;;;;;;;5116224;28;20035;-78
2022/06/30 06:26:15;;;;;;;8.60;5.57;;;;;;;;;;5134780;28;20103;-77
2022/06/30 06:31:26;;;;;;;7.38;4.80;;;;;;;;;;5132788;28;20118;-77
2022/06/30 06:33:52;;;;;;;6.28;4.43;;;;;;;;;;5114573;28;20038;-77
2022/06/30 06:36:18;;;;;;;7.72;5.57;;;;;;;;;;5100913;28;20020;-78
2022/06/30 06:38:44;;;;;;;10.77;5.47;;;;;;;;;;5112880;28;20028;-77
2022/06/30 06:41:09;;;;;;;10.77;5.68;;;;;;;;;;5096113;28;20040;-77
2022/06/30 06:43:35;;;;;;;7.70;5.63;;;;;;;;;;5114354;28;20032;-78
2022/06/30 06:46:01;;;;;;;16.55;6.10;;;;;;;;;;5121652;28;20087;-81
2022/06/30 06:48:41;;;;;;;;;;;;;;;;;;;;;
2022/06/30 06:54:29;;;;;;;12.02;6.43;;;;;;;;;;5139971;27;20100;-79
2022/06/30 07:00:13;;;;;;;;;;;;;;;;;;5136348;27;20035;-81
2022/06/30 07:02:47;;;;;;;9.65;6.30;;;;;;;;;;5121528;27;19976;-80
2022/06/30 07:05:35;;;;;;;8.27;5.47;;;;;;;;;;5122702;27;20042;-80
2022/06/30 07:08:24;;;;;;;;;;;;;;;;;;5142676;27;20061;-81
2022/06/30 07:11:03;;;;;;;8.73;6.32;;;;;;;;;;5125497;27;19922;-81
2022/06/30 07:13:41;;;;;;;10.60;6.83;;;;;;;;;;5121712;27;20035;-81
2022/06/30 07:16:12;;;;;;;7.90;5.65;;;;;;;;;;5120979;27;20294;-80
2022/06/30 07:18:38;;;;;;;10.82;5.82;;;;;;;;;;5123061;27;20027;-82
2022/06/30 07:21:03;;;;;;;8.50;5.85;;;;;;;;;;5141083;27;20037;-83
2022/06/30 07:23:29;;;;;;;7.00;5.20;;;;;;;;;;5123077;27;20035;-79
2022/06/30 07:25:54;;;;;;;9.32;6.60;;;;;;;;;;5139203;27;20039;-81
2022/06/30 07:28:20;;;;;;;7.50;5.78;;;;;;;;;;5136773;27;20039;-80
2022/06/30 07:30:45;;;;;;;11.65;6.22;;;;;;;;;;5137942;27;20050;-84
2022/06/30 07:33:11;;;;;;;6.88;5.65;;;;;;;;;;5140723;27;20035;-80
2022/06/30 07:35:36;;;;;;;8.70;6.15;;;;;;;;;;5123516;27;20122;-81
2022/06/30 07:38:01;;;;;;;14.05;6.65;;;;;;;;;;5120583;28;20058;-80
2022/06/30 07:40:27;;;;;;;9.68;7.03;;;;;;;;;;5117789;28;20055;-78
2022/06/30 07:42:53;;;;;;;9.93;7.28;;;;;;;;;;5104918;28;20118;-81
2022/06/30 07:45:21;;;;;;;13.23;7.55;;;;;;;;;;5104740;28;20042;-83
2022/06/30 07:47:48;;;;;;;9.57;7.72;;;;;;;;;;5124266;28;20042;-84
2022/06/30 07:50:14;;;;;;;11.85;7.93;;;;;;;;;;5125969;28;20126;-83
2022/06/30 07:52:40;;;;;;;13.80;8.18;;;;;;;;;;5119004;28;20032;-79
2022/06/30 07:55:06;;;;;;;10.05;7.53;;;;;;;;;;5119500;28;20038;-80
2022/06/30 07:57:36;;;;;;;15.13;7.70;;;;;;;;;;5118689;28;20070;-80
2022/06/30 08:00:02;;;;;;;16.67;7.90;;;;;;;;;;5116882;28;20063;-79
2022/06/30 08:02:37;;;;;;;9.38;7.70;;;;;;;;;;5135448;27;20040;-80
2022/06/30 08:05:03;;;;;;;11.93;8.02;;;;;;;;;;5107896;27;20084;-78
2022/06/30 08:07:28;;;;;;;14.23;8.25;;;;;;;;;;5137725;27;20035;-82
2022/06/30 08:09:54;;;;;;;16.65;8.90;;;;;;;;;;5138724;27;20122;-78
2022/06/30 08:12:19;;;;;;;12.30;9.27;;;;;;;;;;5120179;27;20048;-79
2022/06/30 08:14:45;;;;;;;10.75;8.43;;;;;;;;;;5121497;27;20105;-83
2022/06/30 08:17:10;;;;;;;12.70;8.60;;;;;;;;;;5139915;27;20151;-83
2022/06/30 08:19:36;;;;;;;10.48;8.43;;;;;;;;;;5140853;27;20586;-78
2022/06/30 08:22:02;;;;;;;11.50;8.80;;;;;;;;;;5119531;27;20063;-79
2022/06/30 08:24:28;;;;;;;14.65;8.52;;;;;;;;;;5122986;27;20114;-80
2022/06/30 08:26:54;;;;;;;13.38;8.80;;;;;;;;;;5118777;27;20066;-80
2022/06/30 08:29:20;;;;;;;14.77;8.07;;;;;;;;;;5119546;27;20031;-78
2022/06/30 08:31:46;;;;;;;8.77;7.70;;;;;;;;;;5136289;27;20426;-77
2022/06/30 08:34:11;;;;;;;13.38;8.18;;;;;;;;;;5120660;27;20035;-79
2022/06/30 08:36:38;;;;;;;17.85;7.78;;;;;;;;;;5141490;27;20039;-80
2022/06/30 08:39:04;;;;;;;11.30;8.50;;;;;;;;;;5138769;27;20067;-80
2022/06/30 08:44:18;;;;;;;16.13;8.52;;;;;;;;;;5137987;27;20070;-82
2022/06/30 08:46:45;;;;;;;12.50;8.10;;;;;;;;;;5140471;27;20404;-80
2022/06/30 08:49:11;;;;;;;9.65;7.00;;;;;;;;;;5121817;27;20042;-77
2022/06/30 08:51:37;;;;;;;9.50;8.50;;;;;;;;;;5121867;27;20035;-82
2022/06/30 08:54:03;;;;;;;9.05;7.05;;;;;;;;;;5123842;27;20035;-82
2022/06/30 08:56:31;;;;;;;11.38;8.88;;;;;;;;;;5141548;27;20445;-82
2022/06/30 08:58:58;;;;;;;9.80;7.50;;;;;;;;;;5139980;27;20031;-80
2022/06/30 09:01:26;;;;;;;14.98;8.05;;;;;;;;;;5122677;27;20063;-82
2022/06/30 09:03:53;;;;;;;10.13;7.63;;;;;;;;;;5123174;27;20031;-81
2022/06/30 09:06:19;;;;;;;11.38;8.13;;;;;;;;;;5133317;27;20505;-81
2022/06/30 09:08:45;;;;;;;13.00;8.13;;;;;;;;;;5121199;28;20120;-82
2022/06/30 09:11:12;;;;;;;11.57;7.40;;;;;;;;;;5120562;28;20035;-82
2022/06/30 09:13:48;;;;;;;11.82;8.02;;;;;;;;;;5101917;28;20107;-81
2022/06/30 09:16:14;;;;;;;11.27;7.95;;;;;;;;;;5121941;28;20416;-82
2022/06/30 09:18:39;;;;;;;8.38;7.30;;;;;;;;;;5102737;28;20095;-82
2022/06/30 09:21:18;;;;;;;8.05;7.25;;;;;;;;;;5103664;28;20038;-83
2022/06/30 09:23:44;;;;;;;11.00;7.97;;;;;;;;;;5101760;28;20031;-81
2022/06/30 09:26:18;;;;;;;11.85;7.63;;;;;;;;;;5135571;27;20122;-83
2022/06/30 09:28:54;;;;;;;10.45;7.80;;;;;;;;;;5099287;28;20482;-77
2022/06/30 09:31:40;;;;;;;10.77;7.47;;;;;;;;;;5113587;27;20553;-82
2022/06/30 09:34:20;;;;;;;15.05;9.88;;;;;;;;;;5129282;27;20059;-77
2022/06/30 09:36:50;;;;;;;9.30;7.53;;;;;;;;;;5116369;28;20044;-79
2022/06/30 09:39:17;;;;;;;8.50;7.07;;;;;;;;;;5114991;28;20023;-75
2022/06/30 09:41:45;;;;;;;10.75;8.50;;;;;;;;;;5114691;28;20051;-77
2022/06/30 09:44:16;;;;;;;16.02;7.70;;;;;;;;;;5115147;28;20032;-78
2022/06/30 09:46:59;;;;;;;8.13;6.32;;;;;;;;;;5121584;27;20038;-77
2022/06/30 09:49:42;;;;;;;12.10;6.72;;;;;;;;;;5135318;27;20031;-78
2022/06/30 09:52:17;;;;;;;10.23;7.10;;;;;;;;;;5133920;27;20031;-75
2022/06/30 09:55:08;;;;;;;10.10;7.45;;;;;;;;;;5132697;27;20138;-75
2022/06/30 09:57:41;;;;;;;12.43;7.88;;;;;;;;;;5132924;27;20041;-74
2022/06/30 10:00:06;;;;;;;7.85;6.47;;;;;;;;;;5133052;27;20123;-76
2022/06/30 10:02:53;;;;;;;18.10;8.18;;;;;;;;;;5133978;28;20168;-77
2022/06/30 10:05:19;;;;;;;10.32;6.97;;;;;;;;;;5138975;28;20063;-79
2022/06/30 10:07:45;;;;;;;9.48;6.20;;;;;;;;;;5124138;28;20032;-79
2022/06/30 10:10:16;;;;;;;8.65;6.45;;;;;;;;;;5137520;28;20023;-79
2022/06/30 10:12:45;;;;;;;11.18;6.47;;;;;;;;;;5135373;27;20043;-79
2022/06/30 10:15:15;;;;;;;14.10;9.68;;;;;;;;;;5138843;27;20068;-78
2022/06/30 10:17:43;;;;;;;32.05;27.13;;;;;;;;;;5122691;28;20045;-79
2022/06/30 10:20:10;;;;;;;9.57;6.75;;;;;;;;;;5122150;28;20415;-78
2022/06/30 10:22:38;;;;;;;9.80;5.75;;;;;;;;;;5136334;27;20062;-80
2022/06/30 10:25:04;;;;;;;8.18;5.65;;;;;;;;;;5144611;27;20027;-80
2022/06/30 10:27:29;;;;;;;8.90;5.80;;;;;;;;;;5127490;27;20964;-78
2022/06/30 10:29:57;;;;;;;8.98;5.93;;;;;;;;;;5141325;27;20038;-78
2022/06/30 10:32:46;;;;;;;7.68;5.47;;;;;;;;;;5122800;27;20039;-78
2022/06/30 10:35:26;;;;;;;6.68;5.20;;;;;;;;;;5115386;28;20075;-79
2022/06/30 10:37:58;;;;;;;5.70;4.95;;;;;;;;;;5117655;28;20471;-78
2022/06/30 10:40:58;;;;;;;6.57;4.68;;;;;;;;;;5122196;28;20028;-78
2022/06/30 10:43:23;;;;;;;8.68;4.38;;;;;;;;;;5119036;27;20035;-80
2022/06/30 10:46:02;;;;;;;5.25;4.13;;;;;;;;;;5123256;27;20027;-81
2022/06/30 10:48:54;;;;;;;6.93;4.60;;;;;;;;;;5142713;27;20061;-79
2022/06/30 10:51:22;;;;;;;9.52;5.45;;;;;;;;;;5120057;27;20126;-77
2022/06/30 10:53:50;;;;;;;6.93;6.15;;;;;;;;;;5137752;27;20039;-79
2022/06/30 10:56:23;;;;;;;8.57;6.03;;;;;;;;;;5139428;27;20127;-78
2022/06/30 10:59:14;;;;;;;10.32;6.35;;;;;;;;;;5122598;27;20027;-79
2022/06/30 11:02:11;;;;;;;14.55;6.45;;;;;;;;;;5122601;27;20426;-79
2022/06/30 11:04:41;;;;;;;8.80;5.73;;;;;;;;;;5127981;27;20055;-79
2022/06/30 11:07:12;;;;;;;6.43;4.85;;;;;;;;;;5102516;28;20117;-79
2022/06/30 11:09:44;;;;;;;7.30;5.43;;;;;;;;;;5102451;28;20032;-79
2022/06/30 11:12:19;;;;;;;11.05;5.13;;;;;;;;;;5121667;28;20042;-79
2022/06/30 11:14:52;;;;;;;10.75;5.50;;;;;;;;;;5119889;28;20123;-78
2022/06/30 11:17:21;;;;;;;10.25;5.22;;;;;;;;;;5120048;28;20031;-79
2022/06/30 11:19:47;;;;;;;6.07;4.68;;;;;;;;;;5102972;28;20031;-79
2022/06/30 11:22:19;;;;;;;6.22;4.75;;;;;;;;;;5102683;28;20028;-79
2022/06/30 11:24:49;;;;;;;11.85;4.85;;;;;;;;;;5119244;28;20404;-79
2022/06/30 11:27:22;;;;;;;8.25;4.97;;;;;;;;;;5102739;28;20449;-79
2022/06/30 11:29:48;;;;;;;8.32;4.55;;;;;;;;;;5119057;28;20043;-79
2022/06/30 11:32:15;;;;;;;11.20;4.85;;;;;;;;;;5118570;28;20465;-79
2022/06/30 11:34:41;;;;;;;10.30;5.10;;;;;;;;;;5101307;28;20036;-79
2022/06/30 11:37:10;;;;;;;7.88;4.90;;;;;;;;;;5117459;27;20077;-79
2022/06/30 11:39:37;;;;;;;7.25;4.68;;;;;;;;;;5122281;27;20031;-79
2022/06/30 11:42:06;;;;;;;6.10;5.15;;;;;;;;;;5141863;27;20035;-79
2022/06/30 11:44:34;;;;;;;8.13;5.53;;;;;;;;;;5121846;27;20065;-79
2022/06/30 11:47:10;;;;;;;9.98;5.15;;;;;;;;;;5139727;27;20447;-79
2022/06/30 11:49:55;;;;;;;8.38;4.82;;;;;;;;;;5122013;27;20035;-79
2022/06/30 11:52:23;;;;;;;9.88;4.50;;;;;;;;;;5138718;27;20125;-79
2022/06/30 11:54:56;;;;;;;6.68;4.60;;;;;;;;;;5121467;27;20035;-79
2022/06/30 11:57:25;;;;;;;4.65;4.00;;;;;;;;;;5121849;27;20068;-79
2022/06/30 11:59:52;;;;;;;7.78;4.80;;;;;;;;;;5123037;27;20031;-79
2022/06/30 12:02:19;;;;;;;6.20;5.05;;;;;;;;;;5121630;27;20122;-79
2022/06/30 12:04:51;;;;;;;8.45;4.75;;;;;;;;;;5139408;27;20045;-79
2022/06/30 12:07:18;;;;;;;6.03;4.00;;;;;;;;;;5139042;27;20035;-79
2022/06/30 12:09:48;;;;;;;12.02;5.07;;;;;;;;;;5142476;27;20115;-79
2022/06/30 12:12:17;;;;;;;8.38;5.40;;;;;;;;;;5159557;27;20392;-79
2022/06/30 12:14:45;;;;;;;6.85;4.85;;;;;;;;;;5142459;27;20046;-79
2022/06/30 12:17:13;;;;;;;8.48;4.75;;;;;;;;;;5142350;27;20034;-79
2022/06/30 12:19:41;;;;;;;7.70;4.93;;;;;;;;;;5160763;27;20060;-79
2022/06/30 12:22:10;;;;;;;13.45;5.32;;;;;;;;;;5160066;27;20042;-79
2022/06/30 12:24:42;;;;;;;8.95;4.75;;;;;;;;;;5158500;27;20039;-79
2022/06/30 12:27:09;;;;;;;9.13;5.00;;;;;;;;;;5142015;27;20042;-79
2022/06/30 12:29:35;;;;;;;7.88;4.78;;;;;;;;;;5141898;27;20147;-79
2022/06/30 12:32:10;;;;;;;7.80;4.38;;;;;;;;;;5141478;27;20133;-79
2022/06/30 12:34:54;;;;;;;8.10;4.03;;;;;;;;;;5137633;27;20036;-79
2022/06/30 12:37:27;;;;;;;6.80;4.80;;;;;;;;;;5138813;27;20054;-79
2022/06/30 12:39:55;;;;;;;10.52;5.20;;;;;;;;;;5120866;27;20511;-79
2022/06/30 12:42:20;;;;;;;10.25;4.30;;;;;;;;;;5137678;27;20034;-78
2022/06/30 12:44:46;;;;;;;5.88;4.60;;;;;;;;;;5120723;27;20077;-78
2022/06/30 12:47:14;;;;;;;10.05;5.22;;;;;;;;;;5137532;27;20031;-78
2022/06/30 12:49:41;;;;;;;9.20;5.78;;;;;;;;;;5138288;27;20042;-78
2022/06/30 12:52:18;;;;;;;9.98;5.95;;;;;;;;;;5137401;27;20142;-78
2022/06/30 12:54:53;;;;;;;9.27;6.22;;;;;;;;;;5119951;27;20065;-78
2022/06/30 12:57:18;;;;;;;9.82;6.05;;;;;;;;;;5137042;27;20104;-78
2022/06/30 12:59:45;;;;;;;7.95;6.10;;;;;;;;;;5137022;27;20026;-78
2022/06/30 13:02:14;;;;;;;12.75;5.70;;;;;;;;;;5138486;27;20114;-78
2022/06/30 13:04:47;;;;;;;7.18;6.47;;;;;;;;;;5133821;27;20031;-78
2022/06/30 13:07:12;;;;;;;12.13;6.30;;;;;;;;;;5115899;28;20031;-78
2022/06/30 13:09:40;;;;;;;6.85;5.72;;;;;;;;;;5115993;28;20036;-78
2022/06/30 13:12:09;;;;;;;6.38;5.15;;;;;;;;;;5117469;28;20050;-78
2022/06/30 13:14:36;;;;;;;8.48;5.53;;;;;;;;;;5116759;27;20036;-79
2022/06/30 13:17:02;;;;;;;5.15;4.63;;;;;;;;;;5115927;28;20100;-78
2022/06/30 13:19:28;;;;;;;10.38;5.07;;;;;;;;;;5115617;28;20031;-78
2022/06/30 13:21:54;;;;;;;9.35;5.03;;;;;;;;;;5115906;28;20032;-78
2022/06/30 13:24:21;;;;;;;6.68;5.22;;;;;;;;;;5098746;28;20092;-78
2022/06/30 13:26:48;;;;;;;16.55;6.05;;;;;;;;;;5116173;28;20031;-79
2022/06/30 13:29:16;;;;;;;11.98;5.10;;;;;;;;;;5099200;28;20481;-79
2022/06/30 13:31:43;;;;;;;7.03;3.88;;;;;;;;;;5100006;28;20553;-79
2022/06/30 13:34:11;;;;;;;6.72;3.40;;;;;;;;;;5100575;28;20043;-79
2022/06/30 13:36:42;;;;;;;6.55;3.50;;;;;;;;;;5117254;28;20043;-79
2022/06/30 13:39:10;;;;;;;7.75;3.45;;;;;;;;;;5117598;28;20035;-79
2022/06/30 13:41:37;;;;;;;7.78;4.15;;;;;;;;;;5118775;28;20089;-79
2022/06/30 13:44:05;;;;;;;7.38;4.20;;;;;;;;;;5102985;27;20035;-79
2022/06/30 13:46:32;;;;;;;6.70;3.58;;;;;;;;;;5142018;27;20065;-79
2022/06/30 13:48:58;;;;;;;9.80;3.97;;;;;;;;;;5141799;27;20030;-79
2022/06/30 13:51:25;;;;;;;5.47;3.47;;;;;;;;;;5142025;27;20117;-79
2022/06/30 13:53:51;;;;;;;5.38;3.03;;;;;;;;;;5158527;27;20035;-79
2022/06/30 13:56:17;;;;;;;6.05;3.05;;;;;;;;;;5160132;27;20529;-79
2022/06/30 13:58:43;;;;;;;8.45;3.25;;;;;;;;;;5140168;27;20045;-79
2022/06/30 14:01:09;;;;;;;11.90;3.00;;;;;;;;;;5158858;27;20035;-79
2022/06/30 14:03:35;;;;;;;7.40;3.33;;;;;;;;;;5141540;27;20038;-79
2022/06/30 14:06:00;;;;;;;5.68;3.63;;;;;;;;;;5141970;27;20035;-79
2022/06/30 14:08:27;;;;;;;5.63;3.30;;;;;;;;;;5141448;27;20101;-79
2022/06/30 14:10:53;;;;;;;6.85;2.97;;;;;;;;;;5140652;27;20637;-79
2022/06/30 14:13:20;;;;;;;4.70;3.10;;;;;;;;;;5135342;27;20046;-79
2022/06/30 14:15:51;;;;;;;5.45;3.15;;;;;;;;;;5100053;28;20039;-79
2022/06/30 14:18:16;;;;;;;6.78;3.20;;;;;;;;;;5117065;28;20055;-79
2022/06/30 14:20:46;;;;;;;5.25;3.17;;;;;;;;;;5117630;28;20480;-79
2022/06/30 14:23:14;;;;;;;4.88;3.20;;;;;;;;;;5116380;28;20039;-79
2022/06/30 14:25:39;;;;;;;9.85;3.08;;;;;;;;;;5099364;28;20092;-79
2022/06/30 14:28:05;;;;;;;7.55;3.72;;;;;;;;;;5117445;28;20035;-79
2022/06/30 14:30:31;;;;;;;5.68;3.40;;;;;;;;;;5116898;28;20488;-79
2022/06/30 14:32:57;;;;;;;5.80;3.50;;;;;;;;;;5099696;28;20481;-79
2022/06/30 14:35:23;;;;;;;3.97;3.17;;;;;;;;;;5118214;28;20476;-79
2022/06/30 14:37:50;;;;;;;7.95;3.42;;;;;;;;;;5116412;28;20071;-79
2022/06/30 14:40:16;;;;;;;8.13;3.70;;;;;;;;;;5099393;28;20512;-79
2022/06/30 14:42:44;;;;;;;6.07;3.50;;;;;;;;;;5116520;28;20060;-79
2022/06/30 14:45:17;;;;;;;7.18;3.60;;;;;;;;;;5098276;28;20034;-79
2022/06/30 14:47:43;;;;;;;8.45;3.92;;;;;;;;;;5099144;28;20035;-79
2022/06/30 14:50:10;;;;;;;5.78;3.17;;;;;;;;;;5099760;28;20500;-79
2022/06/30 14:52:36;;;;;;;7.78;3.60;;;;;;;;;;5099419;28;20053;-79
2022/06/30 14:55:04;;;;;;;10.50;3.95;;;;;;;;;;5099512;28;20031;-79
2022/06/30 14:57:35;;;;;;;9.23;3.92;;;;;;;;;;5114003;28;20042;-77
2022/06/30 15:00:00;;;;;;;6.30;4.22;;;;;;;;;;5113191;28;20028;-78
2022/06/30 15:02:26;;;;;;;9.93;4.15;;;;;;;;;;5111677;28;20034;-78
2022/06/30 15:04:52;;;;;;;5.00;3.90;;;;;;;;;;5095896;28;20049;-77
2022/06/30 15:07:18;;;;;;;9.02;3.85;;;;;;;;;;5096788;28;20028;-77
2022/06/30 15:09:43;;;;;;;6.90;3.92;;;;;;;;;;5116628;28;20035;-78
2022/06/30 15:12:12;;;;;;;7.72;3.45;;;;;;;;;;5118808;27;20099;-78